sensor_id;sensor_type;location;lat;lon;timestamp;P1;durP1;ratioP1;P2;durP2;ratioP2
29026;SDS011;16120;48.608;9.092;2023-11-21T00:03:26;113.30;;;8.80;;
29026;SDS011;16120;48.608;9.092;2023-11-21T00:07:21;113.10;;;8.57;;
29026;SDS011;16120;48.608;9.092;2023-11-21T00:11:16;112.80;;;8.50;;
29026;SDS011;16120;48.608;9.092;2023-11-21T00:15:11;112.97;;;8.37;;
29026;SDS011;16120;48.608;9.092;2023-11-21T00:19:08;113.20;;;8.30;;
29026;SDS011;16120;48.608;9.092;2023-11-21T00:23:03;112.97;;;8.67;;
29026;SDS011;16120;48.608;9.092;2023-11-21T00:26:59;112.90;;;8.30;;
29026;SDS011;16120;48.608;9.092;2023-11-21T00:30:55;112.67;;;8.20;;
29026;SDS011;16120;48.608;9.092;2023-11-21T00:34:51;112.90;;;8.40;;
29026;SDS011;16120;48.608;9.092;2023-11-21T00:38:46;112.77;;;8.27;;
29026;SDS011;16120;48.608;9.092;2023-11-21T00:42:42;112.55;;;8.10;;
29026;SDS011;16120;48.608;9.092;2023-11-21T00:46:37;113.43;;;8.52;;
29026;SDS011;16120;48.608;9.092;2023-11-21T00:50:34;112.90;;;8.40;;
29026;SDS011;16120;48.608;9.092;2023-11-21T00:54:29;112.90;;;8.30;;
29026;SDS011;16120;48.608;9.092;2023-11-21T00:58:24;112.93;;;8.67;;
29026;SDS011;16120;48.608;9.092;2023-11-21T01:02:19;113.10;;;8.67;;
29026;SDS011;16120;48.608;9.092;2023-11-21T01:06:16;113.30;;;8.52;;
29026;SDS011;16120;48.608;9.092;2023-11-21T01:10:11;113.20;;;8.60;;
29026;SDS011;16120;48.608;9.092;2023-11-21T01:14:07;112.77;;;8.77;;
29026;SDS011;16120;48.608;9.092;2023-11-21T01:18:02;112.97;;;8.60;;
29026;SDS011;16120;48.608;9.092;2023-11-21T01:21:58;112.77;;;8.20;;
29026;SDS011;16120;48.608;9.092;2023-11-21T01:25:55;113.07;;;8.60;;
29026;SDS011;16120;48.608;9.092;2023-11-21T01:29:51;112.90;;;8.67;;
29026;SDS011;16120;48.608;9.092;2023-11-21T01:33:47;112.57;;;8.20;;
29026;SDS011;16120;48.608;9.092;2023-11-21T01:37:44;113.57;;;9.10;;
29026;SDS011;16120;48.608;9.092;2023-11-21T01:41:39;113.20;;;8.47;;
29026;SDS011;16120;48.608;9.092;2023-11-21T01:45:34;113.47;;;8.60;;
29026;SDS011;16120;48.608;9.092;2023-11-21T01:49:29;113.78;;;8.90;;
29026;SDS011;16120;48.608;9.092;2023-11-21T01:53:26;112.87;;;8.30;;
29026;SDS011;16120;48.608;9.092;2023-11-21T01:57:21;112.70;;;8.20;;
29026;SDS011;16120;48.608;9.092;2023-11-21T02:01:17;113.20;;;8.53;;
29026;SDS011;16120;48.608;9.092;2023-11-21T02:05:12;113.30;;;8.80;;
29026;SDS011;16120;48.608;9.092;2023-11-21T02:09:09;113.13;;;8.40;;
29026;SDS011;16120;48.608;9.092;2023-11-21T02:13:04;113.10;;;8.63;;
29026;SDS011;16120;48.608;9.092;2023-11-21T02:17:00;113.27;;;8.50;;
29026;SDS011;16120;48.608;9.092;2023-11-21T02:20:55;113.40;;;8.77;;
29026;SDS011;16120;48.608;9.092;2023-11-21T02:24:51;113.73;;;8.67;;
29026;SDS011;16120;48.608;9.092;2023-11-21T02:28:47;113.40;;;8.50;;
29026;SDS011;16120;48.608;9.092;2023-11-21T02:32:42;113.40;;;8.47;;
29026;SDS011;16120;48.608;9.092;2023-11-21T02:36:38;113.30;;;8.57;;
29026;SDS011;16120;48.608;9.092;2023-11-21T02:40:34;113.07;;;8.70;;
29026;SDS011;16120;48.608;9.092;2023-11-21T02:44:30;113.57;;;8.50;;
29026;SDS011;16120;48.608;9.092;2023-11-21T02:48:25;114.32;;;9.10;;
29026;SDS011;16120;48.608;9.092;2023-11-21T02:52:20;113.40;;;8.43;;
29026;SDS011;16120;48.608;9.092;2023-11-21T02:56:17;113.30;;;8.50;;
29026;SDS011;16120;48.608;9.092;2023-11-21T03:00:12;113.37;;;8.60;;
29026;SDS011;16120;48.608;9.092;2023-11-21T03:04:07;113.27;;;8.57;;
29026;SDS011;16120;48.608;9.092;2023-11-21T03:08:03;113.60;;;8.50;;
29026;SDS011;16120;48.608;9.092;2023-11-21T03:11:59;113.33;;;8.77;;
29026;SDS011;16120;48.608;9.092;2023-11-21T03:15:54;112.93;;;8.20;;
29026;SDS011;16120;48.608;9.092;2023-11-21T03:19:50;114.07;;;8.90;;
29026;SDS011;16120;48.608;9.092;2023-11-21T03:23:45;113.30;;;8.67;;
29026;SDS011;16120;48.608;9.092;2023-11-21T03:27:42;112.90;;;8.40;;
29026;SDS011;16120;48.608;9.092;2023-11-21T03:31:37;113.57;;;8.60;;
29026;SDS011;16120;48.608;9.092;2023-11-21T03:35:32;113.10;;;8.33;;
29026;SDS011;16120;48.608;9.092;2023-11-21T03:39:27;113.70;;;8.73;;
29026;SDS011;16120;48.608;9.092;2023-11-21T03:43:24;113.47;;;8.30;;
29026;SDS011;16120;48.608;9.092;2023-11-21T03:47:19;113.37;;;8.70;;
29026;SDS011;16120;48.608;9.092;2023-11-21T03:51:15;113.40;;;8.50;;
29026;SDS011;16120;48.608;9.092;2023-11-21T03:55:10;113.80;;;8.32;;
29026;SDS011;16120;48.608;9.092;2023-11-21T03:59:06;113.50;;;8.67;;
29026;SDS011;16120;48.608;9.092;2023-11-21T04:03:02;113.90;;;8.37;;
29026;SDS011;16120;48.608;9.092;2023-11-21T04:06:57;114.00;;;9.57;;
29026;SDS011;16120;48.608;9.092;2023-11-21T04:10:52;113.60;;;8.80;;
29026;SDS011;16120;48.608;9.092;2023-11-21T04:14:49;113.77;;;9.10;;
29026;SDS011;16120;48.608;9.092;2023-11-21T04:18:44;113.03;;;8.50;;
29026;SDS011;16120;48.608;9.092;2023-11-21T04:22:39;113.68;;;8.50;;
29026;SDS011;16120;48.608;9.092;2023-11-21T04:26:34;113.78;;;8.55;;
29026;SDS011;16120;48.608;9.092;2023-11-21T04:30:31;113.13;;;8.53;;
29026;SDS011;16120;48.608;9.092;2023-11-21T04:34:26;113.97;;;8.90;;
29026;SDS011;16120;48.608;9.092;2023-11-21T04:38:21;113.40;;;8.47;;
29026;SDS011;16120;48.608;9.092;2023-11-21T04:42:17;113.40;;;8.40;;
29026;SDS011;16120;48.608;9.092;2023-11-21T04:46:13;114.13;;;9.13;;
29026;SDS011;16120;48.608;9.092;2023-11-21T04:50:09;113.60;;;8.53;;
29026;SDS011;16120;48.608;9.092;2023-11-21T04:54:04;113.13;;;8.77;;
29026;SDS011;16120;48.608;9.092;2023-11-21T04:58:00;113.50;;;8.30;;
29026;SDS011;16120;48.608;9.092;2023-11-21T05:01:56;114.32;;;8.63;;
29026;SDS011;16120;48.608;9.092;2023-11-21T05:05:51;113.27;;;8.50;;
29026;SDS011;16120;48.608;9.092;2023-11-21T05:09:47;114.10;;;8.85;;
29026;SDS011;16120;48.608;9.092;2023-11-21T05:13:42;113.40;;;8.40;;
29026;SDS011;16120;48.608;9.092;2023-11-21T05:17:38;113.83;;;8.80;;
29026;SDS011;16120;48.608;9.092;2023-11-21T05:21:34;113.20;;;8.90;;
29026;SDS011;16120;48.608;9.092;2023-11-21T05:25:29;113.40;;;8.20;;
29026;SDS011;16120;48.608;9.092;2023-11-21T05:29:24;113.23;;;8.60;;
29026;SDS011;16120;48.608;9.092;2023-11-21T05:33:21;113.93;;;8.65;;
29026;SDS011;16120;48.608;9.092;2023-11-21T05:37:16;113.57;;;8.83;;
29026;SDS011;16120;48.608;9.092;2023-11-21T05:41:11;113.77;;;8.63;;
29026;SDS011;16120;48.608;9.092;2023-11-21T05:45:06;113.20;;;8.80;;
29026;SDS011;16120;48.608;9.092;2023-11-21T05:49:03;113.97;;;8.57;;
29026;SDS011;16120;48.608;9.092;2023-11-21T05:52:58;113.27;;;8.33;;
29026;SDS011;16120;48.608;9.092;2023-11-21T05:56:55;113.47;;;8.27;;
29026;SDS011;16120;48.608;9.092;2023-11-21T06:00:50;113.17;;;8.70;;
29026;SDS011;16120;48.608;9.092;2023-11-21T06:04:47;113.63;;;8.75;;
29026;SDS011;16120;48.608;9.092;2023-11-21T06:08:42;113.17;;;9.10;;
29026;SDS011;16120;48.608;9.092;2023-11-21T06:12:37;113.43;;;8.50;;
29026;SDS011;16120;48.608;9.092;2023-11-21T06:16:33;113.60;;;8.80;;
29026;SDS011;16120;48.608;9.092;2023-11-21T06:20:29;113.40;;;8.70;;
29026;SDS011;16120;48.608;9.092;2023-11-21T06:24:25;113.70;;;8.63;;
29026;SDS011;16120;48.608;9.092;2023-11-21T06:28:20;113.93;;;8.48;;
29026;SDS011;16120;48.608;9.092;2023-11-21T06:32:15;113.17;;;8.27;;
29026;SDS011;16120;48.608;9.092;2023-11-21T06:36:12;113.27;;;8.70;;
29026;SDS011;16120;48.608;9.092;2023-11-21T06:40:07;113.30;;;8.40;;
29026;SDS011;16120;48.608;9.092;2023-11-21T06:44:03;113.10;;;8.17;;
29026;SDS011;16120;48.608;9.092;2023-11-21T06:47:58;113.72;;;8.20;;
29026;SDS011;16120;48.608;9.092;2023-11-21T06:51:55;112.97;;;8.47;;
29026;SDS011;16120;48.608;9.092;2023-11-21T06:55:50;113.63;;;8.60;;
29026;SDS011;16120;48.608;9.092;2023-11-21T06:59:46;113.00;;;8.20;;
29026;SDS011;16120;48.608;9.092;2023-11-21T07:03:41;113.57;;;8.50;;
29026;SDS011;16120;48.608;9.092;2023-11-21T07:07:39;113.17;;;8.40;;
29026;SDS011;16120;48.608;9.092;2023-11-21T07:11:35;113.10;;;8.07;;
29026;SDS011;16120;48.608;9.092;2023-11-21T07:15:30;113.67;;;8.43;;
29026;SDS011;16120;48.608;9.092;2023-11-21T07:19:26;113.07;;;8.57;;
29026;SDS011;16120;48.608;9.092;2023-11-21T07:23:22;114.07;;;8.43;;
29026;SDS011;16120;48.608;9.092;2023-11-21T07:27:17;113.20;;;8.47;;
29026;SDS011;16120;48.608;9.092;2023-11-21T07:31:13;113.80;;;8.65;;
29026;SDS011;16120;48.608;9.092;2023-11-21T07:35:08;113.00;;;8.33;;
29026;SDS011;16120;48.608;9.092;2023-11-21T07:39:05;113.07;;;8.50;;
29026;SDS011;16120;48.608;9.092;2023-11-21T07:43:00;113.10;;;8.50;;
29026;SDS011;16120;48.608;9.092;2023-11-21T07:46:55;112.80;;;8.23;;
29026;SDS011;16120;48.608;9.092;2023-11-21T07:50:50;113.07;;;8.57;;
29026;SDS011;16120;48.608;9.092;2023-11-21T07:54:47;113.10;;;7.90;;
29026;SDS011;16120;48.608;9.092;2023-11-21T07:58:44;112.97;;;8.63;;
29026;SDS011;16120;48.608;9.092;2023-11-21T08:02:39;113.17;;;8.60;;
29026;SDS011;16120;48.608;9.092;2023-11-21T08:06:34;113.10;;;8.47;;
29026;SDS011;16120;48.608;9.092;2023-11-21T08:10:32;113.10;;;8.57;;
29026;SDS011;16120;48.608;9.092;2023-11-21T08:14:27;112.97;;;8.47;;
29026;SDS011;16120;48.608;9.092;2023-11-21T08:18:22;112.67;;;8.37;;
29026;SDS011;16120;48.608;9.092;2023-11-21T08:22:17;112.70;;;8.50;;
29026;SDS011;16120;48.608;9.092;2023-11-21T08:26:16;113.05;;;8.52;;
29026;SDS011;16120;48.608;9.092;2023-11-21T08:30:12;113.50;;;9.27;;
29026;SDS011;16120;48.608;9.092;2023-11-21T08:34:09;112.83;;;8.87;;
29026;SDS011;16120;48.608;9.092;2023-11-21T08:38:04;112.87;;;8.43;;
29026;SDS011;16120;48.608;9.092;2023-11-21T08:42:01;112.97;;;8.40;;
29026;SDS011;16120;48.608;9.092;2023-11-21T08:45:56;112.97;;;8.83;;
29026;SDS011;16120;48.608;9.092;2023-11-21T08:49:51;113.60;;;8.57;;
29026;SDS011;16120;48.608;9.092;2023-11-21T08:53:46;112.50;;;8.63;;
29026;SDS011;16120;48.608;9.092;2023-11-21T08:57:44;112.90;;;9.10;;
29026;SDS011;16120;48.608;9.092;2023-11-21T09:01:39;112.77;;;8.80;;
29026;SDS011;16120;48.608;9.092;2023-11-21T09:05:37;112.37;;;8.70;;
29026;SDS011;16120;48.608;9.092;2023-11-21T09:09:32;111.90;;;8.17;;
29026;SDS011;16120;48.608;9.092;2023-11-21T09:13:29;111.87;;;8.70;;
29026;SDS011;16120;48.608;9.092;2023-11-21T09:17:24;111.37;;;8.27;;
29026;SDS011;16120;48.608;9.092;2023-11-21T09:21:20;111.40;;;8.30;;
29026;SDS011;16120;48.608;9.092;2023-11-21T09:25:15;111.50;;;8.27;;
29026;SDS011;16120;48.608;9.092;2023-11-21T09:29:12;111.40;;;8.30;;
29026;SDS011;16120;48.608;9.092;2023-11-21T09:33:07;111.27;;;8.50;;
29026;SDS011;16120;48.608;9.092;2023-11-21T09:37:02;111.10;;;8.23;;
29026;SDS011;16120;48.608;9.092;2023-11-21T09:40:57;111.10;;;8.23;;
29026;SDS011;16120;48.608;9.092;2023-11-21T09:44:57;111.67;;;8.97;;
29026;SDS011;16120;48.608;9.092;2023-11-21T09:48:55;111.70;;;8.77;;
29026;SDS011;16120;48.608;9.092;2023-11-21T09:52:54;111.00;;;8.30;;
29026;SDS011;16120;48.608;9.092;2023-11-21T09:56:49;111.87;;;8.17;;
29026;SDS011;16120;48.608;9.092;2023-11-21T10:00:48;111.38;;;8.25;;
29026;SDS011;16120;48.608;9.092;2023-11-21T10:04:43;110.87;;;8.37;;
29026;SDS011;16120;48.608;9.092;2023-11-21T10:08:38;110.97;;;8.17;;
29026;SDS011;16120;48.608;9.092;2023-11-21T10:12:34;109.50;;;8.00;;
29026;SDS011;16120;48.608;9.092;2023-11-21T10:16:31;111.23;;;8.30;;
29026;SDS011;16120;48.608;9.092;2023-11-21T10:20:26;110.20;;;7.90;;
29026;SDS011;16120;48.608;9.092;2023-11-21T10:24:21;110.60;;;7.90;;
29026;SDS011;16120;48.608;9.092;2023-11-21T10:28:17;110.90;;;8.27;;
29026;SDS011;16120;48.608;9.092;2023-11-21T10:32:13;110.82;;;8.15;;
29026;SDS011;16120;48.608;9.092;2023-11-21T10:36:08;109.87;;;8.13;;
29026;SDS011;16120;48.608;9.092;2023-11-21T10:40:04;110.33;;;8.27;;
29026;SDS011;16120;48.608;9.092;2023-11-21T10:43:59;110.20;;;8.30;;
29026;SDS011;16120;48.608;9.092;2023-11-21T10:47:56;109.87;;;8.10;;
29026;SDS011;16120;48.608;9.092;2023-11-21T10:51:51;110.50;;;8.77;;
29026;SDS011;16120;48.608;9.092;2023-11-21T10:55:48;110.27;;;8.23;;
29026;SDS011;16120;48.608;9.092;2023-11-21T10:59:44;109.20;;;8.40;;
29026;SDS011;16120;48.608;9.092;2023-11-21T11:03:42;109.80;;;8.43;;
29026;SDS011;16120;48.608;9.092;2023-11-21T11:07:38;110.40;;;8.50;;
29026;SDS011;16120;48.608;9.092;2023-11-21T11:11:36;110.50;;;8.43;;
29026;SDS011;16120;48.608;9.092;2023-11-21T11:15:31;110.07;;;7.97;;
29026;SDS011;16120;48.608;9.092;2023-11-21T11:19:27;111.07;;;8.50;;
29026;SDS011;16120;48.608;9.092;2023-11-21T11:23:28;110.70;;;8.77;;
29026;SDS011;16120;48.608;9.092;2023-11-21T11:27:28;111.00;;;8.77;;
29026;SDS011;16120;48.608;9.092;2023-11-21T11:31:27;110.23;;;8.60;;
29026;SDS011;16120;48.608;9.092;2023-11-21T11:35:29;108.97;;;8.50;;
29026;SDS011;16120;48.608;9.092;2023-11-21T11:39:29;110.33;;;8.13;;
29026;SDS011;16120;48.608;9.092;2023-11-21T11:43:24;110.47;;;8.37;;
29026;SDS011;16120;48.608;9.092;2023-11-21T11:47:20;110.37;;;8.20;;
29026;SDS011;16120;48.608;9.092;2023-11-21T11:51:17;110.57;;;8.37;;
29026;SDS011;16120;48.608;9.092;2023-11-21T11:55:13;110.47;;;8.40;;
29026;SDS011;16120;48.608;9.092;2023-11-21T11:59:08;110.87;;;8.37;;
29026;SDS011;16120;48.608;9.092;2023-11-21T12:03:04;110.87;;;8.07;;
29026;SDS011;16120;48.608;9.092;2023-11-21T12:07:01;110.70;;;8.03;;
29026;SDS011;16120;48.608;9.092;2023-11-21T12:10:56;109.57;;;7.70;;
29026;SDS011;16120;48.608;9.092;2023-11-21T12:14:52;110.63;;;8.38;;
29026;SDS011;16120;48.608;9.092;2023-11-21T12:18:47;110.37;;;8.20;;
29026;SDS011;16120;48.608;9.092;2023-11-21T12:22:44;111.20;;;8.20;;
29026;SDS011;16120;48.608;9.092;2023-11-21T12:26:41;111.00;;;8.70;;
29026;SDS011;16120;48.608;9.092;2023-11-21T12:30:37;110.87;;;8.20;;
29026;SDS011;16120;48.608;9.092;2023-11-21T12:34:32;110.47;;;7.97;;
29026;SDS011;16120;48.608;9.092;2023-11-21T12:38:34;110.30;;;8.13;;
29026;SDS011;16120;48.608;9.092;2023-11-21T12:42:31;110.70;;;8.27;;
29026;SDS011;16120;48.608;9.092;2023-11-21T12:46:26;110.10;;;8.43;;
29026;SDS011;16120;48.608;9.092;2023-11-21T12:50:22;110.47;;;8.20;;
29026;SDS011;16120;48.608;9.092;2023-11-21T12:54:19;110.40;;;8.20;;
29026;SDS011;16120;48.608;9.092;2023-11-21T12:58:14;110.27;;;8.43;;
29026;SDS011;16120;48.608;9.092;2023-11-21T13:02:09;110.10;;;7.93;;
29026;SDS011;16120;48.608;9.092;2023-11-21T13:06:07;110.60;;;8.27;;
29026;SDS011;16120;48.608;9.092;2023-11-21T13:10:04;109.83;;;8.07;;
29026;SDS011;16120;48.608;9.092;2023-11-21T13:14:01;110.87;;;8.13;;
29026;SDS011;16120;48.608;9.092;2023-11-21T13:17:56;110.47;;;8.10;;
29026;SDS011;16120;48.608;9.092;2023-11-21T13:21:52;110.70;;;7.97;;
29026;SDS011;16120;48.608;9.092;2023-11-21T13:25:48;110.82;;;8.07;;
29026;SDS011;16120;48.608;9.092;2023-11-21T13:29:43;111.10;;;8.50;;
29026;SDS011;16120;48.608;9.092;2023-11-21T13:33:39;110.47;;;8.10;;
29026;SDS011;16120;48.608;9.092;2023-11-21T13:37:34;109.93;;;8.73;;
29026;SDS011;16120;48.608;9.092;2023-11-21T13:41:31;110.67;;;8.33;;
29026;SDS011;16120;48.608;9.092;2023-11-21T13:45:26;110.03;;;8.10;;
29026;SDS011;16120;48.608;9.092;2023-11-21T13:49:21;110.30;;;8.20;;
29026;SDS011;16120;48.608;9.092;2023-11-21T13:53:16;110.97;;;8.10;;
29026;SDS011;16120;48.608;9.092;2023-11-21T13:57:13;110.60;;;8.10;;
29026;SDS011;16120;48.608;9.092;2023-11-21T14:01:08;111.07;;;8.40;;
29026;SDS011;16120;48.608;9.092;2023-11-21T14:05:03;110.72;;;7.90;;
29026;SDS011;16120;48.608;9.092;2023-11-21T14:08:59;111.37;;;8.10;;
29026;SDS011;16120;48.608;9.092;2023-11-21T14:12:55;111.22;;;8.40;;
29026;SDS011;16120;48.608;9.092;2023-11-21T14:16:51;110.97;;;7.90;;
29026;SDS011;16120;48.608;9.092;2023-11-21T14:20:46;111.67;;;8.07;;
29026;SDS011;16120;48.608;9.092;2023-11-21T14:24:41;111.20;;;8.10;;
29026;SDS011;16120;48.608;9.092;2023-11-21T14:28:38;111.70;;;8.27;;
29026;SDS011;16120;48.608;9.092;2023-11-21T14:32:33;110.87;;;8.33;;
29026;SDS011;16120;48.608;9.092;2023-11-21T14:36:28;111.40;;;8.07;;
29026;SDS011;16120;48.608;9.092;2023-11-21T14:40:23;111.20;;;8.37;;
29026;SDS011;16120;48.608;9.092;2023-11-21T14:44:20;111.75;;;8.32;;
29026;SDS011;16120;48.608;9.092;2023-11-21T14:48:15;111.60;;;8.13;;
29026;SDS011;16120;48.608;9.092;2023-11-21T14:52:12;111.27;;;8.10;;
29026;SDS011;16120;48.608;9.092;2023-11-21T14:56:07;112.00;;;8.57;;
29026;SDS011;16120;48.608;9.092;2023-11-21T15:00:05;111.47;;;8.37;;
29026;SDS011;16120;48.608;9.092;2023-11-21T15:04:00;111.20;;;8.17;;
29026;SDS011;16120;48.608;9.092;2023-11-21T15:07:55;111.77;;;8.47;;
29026;SDS011;16120;48.608;9.092;2023-11-21T15:11:51;111.30;;;8.27;;
29026;SDS011;16120;48.608;9.092;2023-11-21T15:15:47;111.10;;;8.88;;
29026;SDS011;16120;48.608;9.092;2023-11-21T15:19:42;111.37;;;8.13;;
29026;SDS011;16120;48.608;9.092;2023-11-21T15:23:38;111.10;;;7.90;;
29026;SDS011;16120;48.608;9.092;2023-11-21T15:27:33;110.90;;;8.43;;
29026;SDS011;16120;48.608;9.092;2023-11-21T15:31:30;111.77;;;8.30;;
29026;SDS011;16120;48.608;9.092;2023-11-21T15:35:25;111.27;;;8.30;;
29026;SDS011;16120;48.608;9.092;2023-11-21T15:39:20;111.30;;;8.50;;
29026;SDS011;16120;48.608;9.092;2023-11-21T15:43:15;111.43;;;8.30;;
29026;SDS011;16120;48.608;9.092;2023-11-21T15:47:12;111.90;;;8.60;;
29026;SDS011;16120;48.608;9.092;2023-11-21T15:51:07;111.07;;;9.00;;
29026;SDS011;16120;48.608;9.092;2023-11-21T15:55:03;111.80;;;8.37;;
29026;SDS011;16120;48.608;9.092;2023-11-21T15:58:58;112.03;;;8.60;;
29026;SDS011;16120;48.608;9.092;2023-11-21T16:02:55;111.37;;;8.50;;
29026;SDS011;16120;48.608;9.092;2023-11-21T16:06:50;111.70;;;8.30;;
29026;SDS011;16120;48.608;9.092;2023-11-21T16:10:45;111.77;;;8.53;;
29026;SDS011;16120;48.608;9.092;2023-11-21T16:14:40;111.73;;;8.57;;
29026;SDS011;16120;48.608;9.092;2023-11-21T16:18:37;111.93;;;8.43;;
29026;SDS011;16120;48.608;9.092;2023-11-21T16:22:32;112.03;;;8.50;;
29026;SDS011;16120;48.608;9.092;2023-11-21T16:26:28;112.33;;;8.63;;
29026;SDS011;16120;48.608;9.092;2023-11-21T16:30:23;111.77;;;8.27;;
29026;SDS011;16120;48.608;9.092;2023-11-21T16:34:20;111.97;;;8.37;;
29026;SDS011;16120;48.608;9.092;2023-11-21T16:38:15;112.10;;;8.53;;
29026;SDS011;16120;48.608;9.092;2023-11-21T16:42:11;112.30;;;8.50;;
29026;SDS011;16120;48.608;9.092;2023-11-21T16:46:06;112.17;;;8.13;;
29026;SDS011;16120;48.608;9.092;2023-11-21T16:50:04;111.80;;;8.27;;
29026;SDS011;16120;48.608;9.092;2023-11-21T16:53:59;112.90;;;8.43;;
29026;SDS011;16120;48.608;9.092;2023-11-21T16:57:54;111.90;;;8.10;;
29026;SDS011;16120;48.608;9.092;2023-11-21T17:01:50;112.27;;;8.40;;
29026;SDS011;16120;48.608;9.092;2023-11-21T17:05:46;111.77;;;7.97;;
29026;SDS011;16120;48.608;9.092;2023-11-21T17:09:41;112.27;;;8.53;;
29026;SDS011;16120;48.608;9.092;2023-11-21T17:13:37;111.90;;;8.37;;
29026;SDS011;16120;48.608;9.092;2023-11-21T17:17:32;112.23;;;8.33;;
29026;SDS011;16120;48.608;9.092;2023-11-21T17:21:28;112.67;;;8.43;;
29026;SDS011;16120;48.608;9.092;2023-11-21T17:25:24;112.57;;;8.83;;
29026;SDS011;16120;48.608;9.092;2023-11-21T17:29:19;112.50;;;8.70;;
29026;SDS011;16120;48.608;9.092;2023-11-21T17:33:14;112.30;;;8.40;;
29026;SDS011;16120;48.608;9.092;2023-11-21T17:37:11;112.47;;;8.07;;
29026;SDS011;16120;48.608;9.092;2023-11-21T17:41:06;111.87;;;8.27;;
29026;SDS011;16120;48.608;9.092;2023-11-21T17:45:01;112.40;;;8.73;;
29026;SDS011;16120;48.608;9.092;2023-11-21T17:48:56;113.03;;;8.50;;
29026;SDS011;16120;48.608;9.092;2023-11-21T17:52:53;112.33;;;8.53;;
29026;SDS011;16120;48.608;9.092;2023-11-21T17:56:48;113.13;;;9.10;;
29026;SDS011;16120;48.608;9.092;2023-11-21T18:00:44;112.77;;;8.57;;
29026;SDS011;16120;48.608;9.092;2023-11-21T18:04:39;113.00;;;8.37;;
29026;SDS011;16120;48.608;9.092;2023-11-21T18:08:36;113.30;;;8.50;;
29026;SDS011;16120;48.608;9.092;2023-11-21T18:12:31;113.50;;;8.97;;
29026;SDS011;16120;48.608;9.092;2023-11-21T18:16:27;113.50;;;8.63;;
29026;SDS011;16120;48.608;9.092;2023-11-21T18:20:22;113.65;;;8.65;;
29026;SDS011;16120;48.608;9.092;2023-11-21T18:24:18;113.43;;;8.63;;
29026;SDS011;16120;48.608;9.092;2023-11-21T18:28:14;113.90;;;9.07;;
29026;SDS011;16120;48.608;9.092;2023-11-21T18:32:09;113.47;;;9.20;;
29026;SDS011;16120;48.608;9.092;2023-11-21T18:36:06;113.50;;;9.20;;
29026;SDS011;16120;48.608;9.092;2023-11-21T18:40:02;113.70;;;9.37;;
29026;SDS011;16120;48.608;9.092;2023-11-21T18:43:58;113.70;;;9.13;;
29026;SDS011;16120;48.608;9.092;2023-11-21T18:47:53;113.30;;;9.13;;
29026;SDS011;16120;48.608;9.092;2023-11-21T18:51:48;113.35;;;9.05;;
29026;SDS011;16120;48.608;9.092;2023-11-21T18:55:45;113.55;;;8.85;;
29026;SDS011;16120;48.608;9.092;2023-11-21T18:59:40;114.47;;;9.17;;
29026;SDS011;16120;48.608;9.092;2023-11-21T19:03:35;113.60;;;8.70;;
29026;SDS011;16120;48.608;9.092;2023-11-21T19:07:30;113.22;;;8.57;;
29026;SDS011;16120;48.608;9.092;2023-11-21T19:11:27;113.18;;;8.52;;
29026;SDS011;16120;48.608;9.092;2023-11-21T19:15:22;113.53;;;8.90;;
29026;SDS011;16120;48.608;9.092;2023-11-21T19:19:17;113.50;;;8.88;;
29026;SDS011;16120;48.608;9.092;2023-11-21T19:23:13;112.87;;;8.70;;
29026;SDS011;16120;48.608;9.092;2023-11-21T19:27:09;113.50;;;9.15;;
29026;SDS011;16120;48.608;9.092;2023-11-21T19:31:05;113.50;;;8.80;;
29026;SDS011;16120;48.608;9.092;2023-11-21T19:35:00;113.50;;;8.97;;
29026;SDS011;16120;48.608;9.092;2023-11-21T19:38:55;113.20;;;8.80;;
29026;SDS011;16120;48.608;9.092;2023-11-21T19:42:52;112.40;;;8.03;;
29026;SDS011;16120;48.608;9.092;2023-11-21T19:46:47;113.57;;;8.70;;
29026;SDS011;16120;48.608;9.092;2023-11-21T19:50:43;113.80;;;8.77;;
29026;SDS011;16120;48.608;9.092;2023-11-21T19:54:38;113.00;;;8.70;;
29026;SDS011;16120;48.608;9.092;2023-11-21T19:58:34;113.37;;;8.70;;
29026;SDS011;16120;48.608;9.092;2023-11-21T20:02:30;113.17;;;8.90;;
29026;SDS011;16120;48.608;9.092;2023-11-21T20:06:25;113.33;;;8.70;;
29026;SDS011;16120;48.608;9.092;2023-11-21T20:10:20;113.10;;;8.67;;
29026;SDS011;16120;48.608;9.092;2023-11-21T20:14:17;113.50;;;8.57;;
29026;SDS011;16120;48.608;9.092;2023-11-21T20:18:12;113.37;;;8.37;;
29026;SDS011;16120;48.608;9.092;2023-11-21T20:22:07;113.17;;;8.60;;
29026;SDS011;16120;48.608;9.092;2023-11-21T20:26:03;113.00;;;8.90;;
29026;SDS011;16120;48.608;9.092;2023-11-21T20:29:59;113.47;;;8.63;;
29026;SDS011;16120;48.608;9.092;2023-11-21T20:33:55;113.77;;;9.00;;
29026;SDS011;16120;48.608;9.092;2023-11-21T20:37:50;112.82;;;8.65;;
29026;SDS011;16120;48.608;9.092;2023-11-21T20:41:45;113.10;;;8.67;;
29026;SDS011;16120;48.608;9.092;2023-11-21T20:45:42;113.47;;;9.30;;
29026;SDS011;16120;48.608;9.092;2023-11-21T20:49:37;113.07;;;8.60;;
29026;SDS011;16120;48.608;9.092;2023-11-21T20:53:33;113.30;;;8.73;;
29026;SDS011;16120;48.608;9.092;2023-11-21T20:57:28;113.67;;;9.20;;
29026;SDS011;16120;48.608;9.092;2023-11-21T21:01:25;113.82;;;8.80;;
29026;SDS011;16120;48.608;9.092;2023-11-21T21:05:20;113.20;;;8.83;;
29026;SDS011;16120;48.608;9.092;2023-11-21T21:09:15;113.70;;;8.87;;
29026;SDS011;16120;48.608;9.092;2023-11-21T21:13:11;113.80;;;9.00;;
29026;SDS011;16120;48.608;9.092;2023-11-21T21:17:07;113.20;;;8.27;;
29026;SDS011;16120;48.608;9.092;2023-11-21T21:21:03;113.33;;;8.90;;
29026;SDS011;16120;48.608;9.092;2023-11-21T21:24:58;113.63;;;8.80;;
29026;SDS011;16120;48.608;9.092;2023-11-21T21:28:53;113.47;;;9.47;;
29026;SDS011;16120;48.608;9.092;2023-11-21T21:32:50;114.35;;;9.07;;
29026;SDS011;16120;48.608;9.092;2023-11-21T21:36:45;114.07;;;8.70;;
29026;SDS011;16120;48.608;9.092;2023-11-21T21:40:40;113.47;;;8.50;;
29026;SDS011;16120;48.608;9.092;2023-11-21T21:44:35;113.90;;;8.70;;
29026;SDS011;16120;48.608;9.092;2023-11-21T21:48:32;113.47;;;8.60;;
29026;SDS011;16120;48.608;9.092;2023-11-21T21:52:33;113.47;;;8.57;;
29026;SDS011;16120;48.608;9.092;2023-11-21T21:56:28;113.80;;;8.97;;
29026;SDS011;16120;48.608;9.092;2023-11-21T22:00:24;113.40;;;8.80;;
29026;SDS011;16120;48.608;9.092;2023-11-21T22:04:20;114.13;;;8.60;;
29026;SDS011;16120;48.608;9.092;2023-11-21T22:08:15;113.50;;;8.83;;
29026;SDS011;16120;48.608;9.092;2023-11-21T22:12:11;113.00;;;8.40;;
29026;SDS011;16120;48.608;9.092;2023-11-21T22:16:06;113.10;;;8.17;;
29026;SDS011;16120;48.608;9.092;2023-11-21T22:20:03;113.60;;;8.27;;
29026;SDS011;16120;48.608;9.092;2023-11-21T22:23:58;113.10;;;8.77;;
29026;SDS011;16120;48.608;9.092;2023-11-21T22:27:53;113.57;;;8.90;;
29026;SDS011;16120;48.608;9.092;2023-11-21T22:31:48;112.78;;;8.13;;
29026;SDS011;16120;48.608;9.092;2023-11-21T22:35:45;113.10;;;8.40;;
29026;SDS011;16120;48.608;9.092;2023-11-21T22:39:40;113.93;;;8.87;;
29026;SDS011;16120;48.608;9.092;2023-11-21T22:43:36;113.17;;;8.50;;
29026;SDS011;16120;48.608;9.092;2023-11-21T22:47:31;113.10;;;8.60;;
29026;SDS011;16120;48.608;9.092;2023-11-21T22:51:28;113.80;;;8.77;;
29026;SDS011;16120;48.608;9.092;2023-11-21T22:55:23;113.40;;;8.43;;
29026;SDS011;16120;48.608;9.092;2023-11-21T22:59:18;113.40;;;8.57;;